FJI891 KDFW-NFFN
Flight info
| Callsign | FJI891 |
|---|---|
| Flight time | N/A |
| Altitude | 36000 |
| Route | WSTEX2 DOSXX DCT FST DCT ALKEM DCT CUU UJ2 LTO DCT 24N116W 22N120W 20N124W/N0492F380 18N128W 15N134W 12N139W 09N144W 06N149W/N0485F400 02N155W 02S160W 05S164W 08S168W DCT PUPIS DCT 1151S17400W DCT HOI B577 NN |
| Aircraft | A359/H-SDE2E3GHIJ1J3J4J5LM1ORWXY/LB1D1 |
Departure
| Time | 2026-05-08 04:30 |
|---|---|
| Airport | Dallas Fort Worth International Airport (KDFW) |
Arrival
| Time | N/A |
|---|---|
| Airport | Nadi International Airport (NFFN) |
| Time | Latitude | Longitude | Altitude | Speed | Heading |
|---|---|---|---|---|---|
| 2026-05-08 04:00 | 32.89488 | -97.04308 | 604 ft | 0 kts | 0° |
| 2026-05-08 04:11 | 32.89475 | -97.04309 | 616 ft | 4 kts | 2° |
| 2026-05-08 04:11 | 32.89448 | -97.04309 | 617 ft | 4 kts | 352° |
| 2026-05-08 04:11 | 32.89428 | -97.04301 | 618 ft | 4 kts | 283° |
| 2026-05-08 04:12 | 32.89428 | -97.04306 | 621 ft | 4 kts | 272° |
| 2026-05-08 04:12 | 32.89428 | -97.04338 | 620 ft | 4 kts | 271° |
| 2026-05-08 04:12 | 32.89429 | -97.04370 | 620 ft | 4 kts | 271° |
| 2026-05-08 04:12 | 32.89429 | -97.04402 | 620 ft | 4 kts | 271° |
| 2026-05-08 04:13 | 32.89429 | -97.04434 | 621 ft | 4 kts | 270° |
| 2026-05-08 04:13 | 32.89430 | -97.04465 | 618 ft | 3 kts | 270° |
| 2026-05-08 04:13 | 32.89430 | -97.04469 | 618 ft | 5 kts | 270° |
| 2026-05-08 04:19 | 32.89430 | -97.04472 | 617 ft | 3 kts | 270° |
| 2026-05-08 04:19 | 32.89430 | -97.04556 | 616 ft | 16 kts | 270° |
| 2026-05-08 04:19 | 32.89430 | -97.04685 | 616 ft | 14 kts | 270° |
| 2026-05-08 04:19 | 32.89441 | -97.04750 | 615 ft | 7 kts | 307° |
| 2026-05-08 04:20 | 32.89485 | -97.04766 | 621 ft | 7 kts | 354° |
| 2026-05-08 04:20 | 32.89537 | -97.04768 | 613 ft | 9 kts | 359° |
| 2026-05-08 04:20 | 32.89623 | -97.04768 | 613 ft | 16 kts | 0° |
| 2026-05-08 04:20 | 32.89745 | -97.04768 | 611 ft | 18 kts | 360° |
| 2026-05-08 04:21 | 32.89871 | -97.04767 | 614 ft | 18 kts | 0° |
| 2026-05-08 04:21 | 32.89996 | -97.04766 | 612 ft | 18 kts | 0° |
| 2026-05-08 04:21 | 32.90120 | -97.04765 | 611 ft | 18 kts | 0° |
| 2026-05-08 04:21 | 32.90247 | -97.04764 | 617 ft | 18 kts | 0° |
| 2026-05-08 04:22 | 32.90372 | -97.04764 | 618 ft | 18 kts | 0° |
| 2026-05-08 04:22 | 32.90497 | -97.04763 | 612 ft | 18 kts | 1° |
| 2026-05-08 04:22 | 32.90622 | -97.04762 | 613 ft | 18 kts | 360° |
| 2026-05-08 04:22 | 32.90748 | -97.04761 | 613 ft | 18 kts | 0° |
| 2026-05-08 04:23 | 32.90874 | -97.04760 | 613 ft | 18 kts | 0° |
| 2026-05-08 04:23 | 32.90971 | -97.04758 | 621 ft | 8 kts | 8° |
| 2026-05-08 04:23 | 32.91020 | -97.04725 | 621 ft | 8 kts | 34° |
| 2026-05-08 04:23 | 32.91075 | -97.04708 | 613 ft | 9 kts | 2° |
| 2026-05-08 04:24 | 32.91136 | -97.04707 | 613 ft | 9 kts | 1° |
| 2026-05-08 04:24 | 32.91201 | -97.04706 | 621 ft | 10 kts | 0° |
| 2026-05-08 04:24 | 32.91270 | -97.04706 | 614 ft | 10 kts | 0° |
| 2026-05-08 04:24 | 32.91344 | -97.04705 | 623 ft | 11 kts | 0° |
| 2026-05-08 04:25 | 32.91420 | -97.04705 | 621 ft | 11 kts | 0° |
| 2026-05-08 04:25 | 32.91499 | -97.04705 | 619 ft | 12 kts | 0° |
| 2026-05-08 04:25 | 32.91561 | -97.04746 | 615 ft | 10 kts | 296° |
| 2026-05-08 04:25 | 32.91566 | -97.04831 | 612 ft | 11 kts | 270° |
| 2026-05-08 04:26 | 32.91566 | -97.04920 | 617 ft | 10 kts | 270° |
| 2026-05-08 04:26 | 32.91566 | -97.04937 | 613 ft | 0 kts | 270° |
| 2026-05-08 04:28 | 32.91566 | -97.04945 | 613 ft | 3 kts | 270° |
| 2026-05-08 04:28 | 32.91566 | -97.04996 | 613 ft | 9 kts | 270° |
| 2026-05-08 04:28 | 32.91551 | -97.05061 | 621 ft | 7 kts | 217° |
| 2026-05-08 04:29 | 32.91504 | -97.05074 | 617 ft | 7 kts | 185° |
| 2026-05-08 04:29 | 32.91434 | -97.05075 | 619 ft | 16 kts | 181° |
| 2026-05-08 04:29 | 32.91123 | -97.05076 | 617 ft | 77 kts | 180° |
| 2026-05-08 04:29 | 32.90383 | -97.05080 | 613 ft | 135 kts | 180° |
| 2026-05-08 04:30 | 32.89276 | -97.05084 | 630 ft | 183 kts | 180° |
| 2026-05-08 04:30 | 32.88030 | -97.05060 | 1329 ft | 174 kts | 177° |
| 2026-05-08 04:30 | 32.86846 | -97.05039 | 2033 ft | 174 kts | 179° |
| 2026-05-08 04:30 | 32.85596 | -97.05048 | 2290 ft | 189 kts | 180° |
| 2026-05-08 04:31 | 32.84218 | -97.05073 | 2466 ft | 207 kts | 180° |
| 2026-05-08 04:31 | 32.82707 | -97.05107 | 2605 ft | 228 kts | 180° |
| 2026-05-08 04:31 | 32.81058 | -97.05146 | 2954 ft | 240 kts | 180° |
| 2026-05-08 04:31 | 32.79381 | -97.05191 | 3475 ft | 245 kts | 178° |
| 2026-05-08 04:32 | 32.77654 | -97.05195 | 3993 ft | 247 kts | 170° |
| 2026-05-08 04:32 | 32.75925 | -97.05060 | 4359 ft | 253 kts | 167° |
| 2026-05-08 04:32 | 32.74160 | -97.04922 | 4722 ft | 257 kts | 167° |
| 2026-05-08 04:32 | 32.72358 | -97.05087 | 4922 ft | 264 kts | 186° |
| 2026-05-08 04:33 | 32.70686 | -97.05944 | 5321 ft | 264 kts | 201° |
| 2026-05-08 04:33 | 32.69269 | -97.07375 | 5611 ft | 268 kts | 219° |
| 2026-05-08 04:33 | 32.68279 | -97.09230 | 5942 ft | 270 kts | 235° |
| 2026-05-08 04:33 | 32.67784 | -97.11397 | 6372 ft | 271 kts | 251° |
| 2026-05-08 04:34 | 32.67687 | -97.13585 | 6948 ft | 265 kts | 256° |
| 2026-05-08 04:34 | 32.67913 | -97.15787 | 7154 ft | 276 kts | 273° |
| 2026-05-08 04:34 | 32.68705 | -97.17901 | 7532 ft | 282 kts | 290° |
| 2026-05-08 04:34 | 32.69976 | -97.19676 | 7887 ft | 288 kts | 306° |
| 2026-05-08 04:35 | 32.71512 | -97.21161 | 8634 ft | 273 kts | 300° |
| 2026-05-08 04:35 | 32.72103 | -97.23078 | 9457 ft | 244 kts | 250° |